Time;durP1;ratioP1;P1;durP2;ratioP2;P2;SDS_P1;SDS_P2;PMS_P1;PMS_P2;Temp;Humidity;BMP_temperature;BMP_pressure;BME280_temperature;BME280_humidity;BME280_pressure;Samples;Min_cycle;Max_cycle;Signal;HPM_P1;HPM_P2
2022/12/21 00:00:10;;;;;;;1.88;1.63;;;;;;;18.83;44.91;100957.81;5047396;28;20370;-66
2022/12/21 00:02:35;;;;;;;3.03;1.90;;;;;;;18.84;44.81;100962.19;5047484;28;20032;-65
2022/12/21 00:05:00;;;;;;;2.42;1.52;;;;;;;18.83;44.70;100964.03;5047140;28;20089;-66
2022/12/21 00:07:26;;;;;;;3.35;2.22;;;;;;;18.83;44.71;100957.81;5047299;28;20036;-65
2022/12/21 00:09:51;;;;;;;3.65;2.03;;;;;;;18.80;44.67;100955.44;5047190;28;20025;-65
2022/12/21 00:12:16;;;;;;;3.65;2.15;;;;;;;18.78;44.44;100944.00;5045767;28;20025;-65
2022/12/21 00:14:41;;;;;;;2.03;1.77;;;;;;;18.81;44.37;100955.25;5036928;28;20069;-65
2022/12/21 00:17:07;;;;;;;3.08;1.85;;;;;;;18.76;44.65;100946.00;5034369;28;20025;-65
2022/12/21 00:19:33;;;;;;;2.75;1.85;;;;;;;18.77;44.80;100947.69;5046294;28;20052;-65
2022/12/21 00:21:58;;;;;;;2.97;1.80;;;;;;;18.75;44.38;100938.94;5045580;28;20061;-65
2022/12/21 00:24:23;;;;;;;2.85;1.83;;;;;;;18.80;44.64;100950.91;5045256;28;20072;-65
2022/12/21 00:26:48;;;;;;;2.65;1.83;;;;;;;18.80;44.35;100955.44;5046827;28;20094;-64
2022/12/21 00:29:15;;;;;;;2.95;1.80;;;;;;;18.80;44.40;100967.06;5046963;28;20032;-64
2022/12/21 00:31:40;;;;;;;2.78;1.90;;;;;;;18.76;44.49;100962.16;5046682;28;20048;-65
2022/12/21 00:34:06;;;;;;;2.88;1.83;;;;;;;18.75;44.59;100957.81;5046445;28;20029;-64
2022/12/21 00:36:32;;;;;;;2.67;1.95;;;;;;;18.78;44.59;100966.41;5046687;28;20050;-64
2022/12/21 00:38:58;;;;;;;3.55;2.00;;;;;;;18.72;44.45;100953.56;5046736;28;20025;-64
2022/12/21 00:41:26;;;;;;;2.28;1.73;;;;;;;18.72;44.46;100956.28;5046642;28;20026;-64
2022/12/21 00:43:53;;;;;;;1.80;1.55;;;;;;;18.78;44.54;100970.94;5046553;28;20051;-64
2022/12/21 00:46:26;;;;;;;2.35;1.80;;;;;;;18.77;44.30;100975.47;5045777;28;20025;-64
2022/12/21 00:48:52;;;;;;;2.28;1.52;;;;;;;18.76;44.22;100979.16;5045921;28;20045;-64
2022/12/21 00:51:21;;;;;;;2.20;1.60;;;;;;;18.70;44.45;100969.06;5046730;28;20029;-64
2022/12/21 00:53:47;;;;;;;2.92;1.80;;;;;;;18.77;44.42;100977.31;5061602;28;20056;-64
2022/12/21 00:56:13;;;;;;;5.82;2.25;;;;;;;18.74;44.67;100973.13;5045196;28;20033;-63
2022/12/21 00:58:38;;;;;;;1.98;1.60;;;;;;;18.72;44.23;100967.03;5046412;28;20025;-64
2022/12/21 01:01:06;;;;;;;2.75;1.98;;;;;;;18.73;44.27;100966.91;5046464;28;20075;-63
2022/12/21 01:03:32;;;;;;;1.63;1.52;;;;;;;18.75;44.47;100968.56;5045095;28;20021;-64
2022/12/21 01:05:57;;;;;;;2.67;1.95;;;;;;;18.73;44.49;100974.97;5046347;28;20033;-64
2022/12/21 01:08:23;;;;;;;2.80;1.73;;;;;;;18.69;44.40;100975.41;5046189;28;20029;-64
2022/12/21 01:10:49;;;;;;;3.20;1.90;;;;;;;18.73;44.53;100980.38;5046035;28;20048;-64
2022/12/21 01:13:15;;;;;;;3.67;1.95;;;;;;;18.72;44.43;100986.72;5045851;28;20518;-65
2022/12/21 01:15:45;;;;;;;1.67;1.52;;;;;;;18.66;44.39;100986.53;5057339;28;20022;-64
2022/12/21 01:18:13;;;;;;;1.85;1.60;;;;;;;18.72;44.44;100993.97;5041735;28;20410;-64
2022/12/21 01:20:43;;;;;;;1.90;1.70;;;;;;;18.69;44.39;100984.41;5044494;28;20112;-64
2022/12/21 01:23:09;;;;;;;2.22;1.70;;;;;;;18.69;44.63;100984.41;5045306;28;20039;-64
2022/12/21 01:25:34;;;;;;;2.35;1.60;;;;;;;18.70;44.36;100987.94;5045878;28;20471;-65
2022/12/21 01:27:59;;;;;;;2.92;1.85;;;;;;;18.69;44.42;100992.47;5045917;28;20033;-65
2022/12/21 01:30:25;;;;;;;2.60;1.80;;;;;;;18.68;44.37;100990.72;5045675;28;20478;-63
2022/12/21 01:32:51;;;;;;;2.65;1.77;;;;;;;18.69;44.37;100995.16;5061141;28;20029;-64
2022/12/21 01:35:16;;;;;;;2.13;1.70;;;;;;;18.68;44.21;101001.50;5045583;28;20033;-64
2022/12/21 01:37:41;;;;;;;2.55;1.70;;;;;;;18.68;44.27;101003.34;5045418;28;20033;-64
2022/12/21 01:40:07;;;;;;;2.58;1.73;;;;;;;18.68;44.18;101000.66;5045339;28;20025;-64
2022/12/21 01:42:33;;;;;;;3.35;1.70;;;;;;;18.65;44.42;100995.63;5045306;28;20128;-64
2022/12/21 01:45:18;;;;;;;2.40;1.50;;;;;;;18.65;44.12;100991.09;5060852;28;20044;-63
2022/12/21 01:47:47;;;;;;;2.95;1.90;;;;;;;18.65;44.09;100996.47;5060207;28;20041;-64
2022/12/21 01:50:46;;;;;;;2.35;1.65;;;;;;;18.64;44.38;100992.06;5044066;28;20080;-64
2022/12/21 01:53:27;;;;;;;2.15;1.70;;;;;;;18.64;44.30;100993.91;5041652;28;20033;-65
2022/12/21 01:55:54;;;;;;;2.22;1.52;;;;;;;18.63;44.10;100993.09;5045401;28;20041;-65
2022/12/21 01:58:20;;;;;;;1.60;1.50;;;;;;;18.63;44.08;100992.25;5060915;28;20034;-66
2022/12/21 02:00:45;;;;;;;2.60;1.85;;;;;;;18.61;44.42;100989.72;5045245;28;20147;-66
2022/12/21 02:03:15;;;;;;;1.75;1.50;;;;;;;18.61;44.34;100997.81;5044971;28;20068;-66
2022/12/21 02:06:16;;;;;;;2.05;1.55;;;;;;;18.60;44.26;101004.19;5044799;28;20509;-64
2022/12/21 02:08:41;;;;;;;2.40;1.50;;;;;;;18.60;44.18;101006.03;5042855;28;20040;-64
2022/12/21 02:11:07;;;;;;;1.90;1.60;;;;;;;18.59;44.33;101007.03;5044974;28;20033;-64
2022/12/21 02:13:32;;;;;;;1.98;1.77;;;;;;;18.58;44.35;100990.03;5060022;28;20033;-64
2022/12/21 02:16:01;;;;;;;2.38;1.40;;;;;;;18.59;44.15;100982.81;5043140;28;20104;-64
2022/12/21 02:18:54;;;;;;;2.85;2.20;;;;;;;18.58;44.20;100990.03;5044987;28;20123;-63
2022/12/21 02:21:24;;;;;;;2.40;1.80;;;;;;;18.58;44.12;101002.69;5040650;28;20060;-63
2022/12/21 02:24:02;;;;;;;2.35;1.60;;;;;;;18.57;44.19;100998.31;5044703;28;20026;-63
2022/12/21 02:26:58;;;;;;;2.10;1.50;;;;;;;18.56;44.23;100994.75;5044631;28;20022;-63
2022/12/21 02:29:44;;;;;;;1.92;1.45;;;;;;;18.55;44.26;100998.44;5044557;28;20029;-63
2022/12/21 02:32:13;;;;;;;2.25;1.85;;;;;;;18.54;44.16;100998.63;5044558;28;20025;-64
2022/12/21 02:34:50;;;;;;;2.03;1.50;;;;;;;18.53;44.28;100989.72;5044087;28;20041;-63
2022/12/21 02:37:22;;;;;;;1.98;1.60;;;;;;;18.42;44.20;100968.47;5043435;28;20037;-63
2022/12/21 02:40:13;;;;;;;2.30;1.60;;;;;;;18.50;43.96;100981.94;5043395;28;20021;-64
2022/12/21 02:45:41;;;;;;;2.08;1.30;;;;;;;18.49;44.27;100983.81;5043952;28;20084;-63
2022/12/21 02:48:35;;;;;;;2.78;2.15;;;;;;;18.49;44.30;100977.56;5044104;28;20430;-63
2022/12/21 02:51:03;;;;;;;2.40;1.58;;;;;;;18.46;44.12;100978.72;5043330;28;20025;-63
2022/12/21 02:53:31;;;;;;;2.25;1.48;;;;;;;18.45;44.34;100977.06;5043022;28;20061;-63
2022/12/21 02:55:57;;;;;;;2.83;1.75;;;;;;;18.46;44.36;100972.50;5043001;28;20026;-63
2022/12/21 02:58:23;;;;;;;2.20;1.85;;;;;;;18.46;44.38;100977.91;5043904;28;20407;-63
2022/12/21 03:00:59;;;;;;;3.65;1.60;;;;;;;18.37;44.12;100965.41;5044032;28;20025;-64
2022/12/21 03:04:02;;;;;;;1.77;1.50;;;;;;;18.45;44.25;100979.75;5042895;28;20029;-64
2022/12/21 03:06:39;;;;;;;2.15;1.60;;;;;;;18.44;44.34;100982.63;5044251;28;20040;-64
2022/12/21 03:09:19;;;;;;;2.05;1.40;;;;;;;18.41;44.33;100977.56;5043962;28;20029;-64
2022/12/21 03:12:06;;;;;;;1.50;1.35;;;;;;;18.43;44.26;100972.81;5043698;28;20073;-64
2022/12/21 03:14:58;;;;;;;2.08;1.80;;;;;;;18.41;44.10;100983.78;5044982;28;20029;-63
2022/12/21 03:17:35;;;;;;;1.40;1.30;;;;;;;18.41;44.33;100977.56;5028932;28;20033;-64
2022/12/21 03:20:27;;;;;;;1.40;1.30;;;;;;;18.40;44.33;100976.72;5043395;28;20029;-64
2022/12/21 03:23:14;;;;;;;2.10;1.70;;;;;;;18.39;44.31;100969.66;5043645;28;20026;-65
2022/12/21 03:25:49;;;;;;;2.08;1.58;;;;;;;18.38;44.08;100973.31;5043791;28;20025;-64
2022/12/21 03:28:19;;;;;;;2.00;1.60;;;;;;;18.38;44.25;100967.09;5047385;28;20057;-64
2022/12/21 03:30:48;;;;;;;3.00;1.63;;;;;;;18.37;44.06;100970.81;5046725;28;20060;-64
2022/12/21 03:33:18;;;;;;;3.35;2.10;;;;;;;18.36;44.13;100972.66;5029468;28;20021;-64
2022/12/21 03:35:43;;;;;;;2.53;1.63;;;;;;;18.37;44.28;100976.19;5063135;28;20055;-64
2022/12/21 03:38:14;;;;;;;2.05;1.67;;;;;;;18.35;44.00;100973.66;5047808;28;20132;-64
2022/12/21 03:40:42;;;;;;;1.80;1.50;;;;;;;18.26;44.07;100953.09;5046652;28;20033;-64
2022/12/21 03:43:19;;;;;;;2.78;2.05;;;;;;;18.34;44.06;100961.19;5063151;28;20085;-65
2022/12/21 03:46:07;;;;;;;2.40;1.95;;;;;;;18.34;44.35;100961.19;5047024;28;20040;-64
2022/12/21 03:48:47;;;;;;;1.92;1.67;;;;;;;18.35;44.11;100975.50;5046898;28;20042;-64
2022/12/21 03:51:48;;;;;;;2.10;1.50;;;;;;;18.34;44.05;100958.50;5047834;28;20052;-63
2022/12/21 03:54:42;;;;;;;2.67;1.60;;;;;;;18.34;44.18;100969.28;5046365;28;20081;-64
2022/12/21 03:57:09;;;;;;;1.60;1.50;;;;;;;18.33;44.19;100961.38;5047387;28;20088;-64
2022/12/21 03:59:36;;;;;;;2.17;1.63;;;;;;;18.32;44.21;100963.22;5046626;28;20077;-64
2022/12/21 04:02:10;;;;;;;1.80;1.50;;;;;;;18.31;44.18;100950.78;5045879;28;20022;-64
2022/12/21 04:04:43;;;;;;;2.15;1.80;;;;;;;18.25;44.08;100940.66;5045957;28;20021;-64
2022/12/21 04:07:09;;;;;;;2.22;1.70;;;;;;;18.26;44.09;100936.94;5046351;28;20021;-65
2022/12/21 04:09:36;;;;;;;1.80;1.65;;;;;;;18.30;44.07;100949.06;5046267;28;20033;-64
2022/12/21 04:14:45;;;;;;;2.28;2.08;;;;;;;18.29;44.01;100950.09;5047129;28;20543;-64
2022/12/21 04:17:11;;;;;;;2.33;1.90;;;;;;;18.29;44.22;100946.56;5062101;28;20025;-64
2022/12/21 04:30:32;;;;;;;1.88;1.42;;;;;;;18.26;44.25;100953.09;5046961;28;20043;-63
2022/12/21 04:32:57;;;;;;;2.85;2.13;;;;;;;18.24;43.96;100942.50;5046301;28;20116;-63
2022/12/21 04:35:23;;;;;;;2.67;2.20;;;;;;;18.16;44.27;100930.88;5046189;28;20065;-63
2022/12/21 04:37:48;;;;;;;1.70;1.60;;;;;;;18.24;43.96;100933.59;5046241;28;20096;-64
2022/12/21 04:40:13;;;;;;;2.22;1.80;;;;;;;18.23;44.15;100932.75;5046010;28;20036;-64
2022/12/21 04:42:39;;;;;;;2.08;1.67;;;;;;;18.24;44.02;100938.97;5046360;28;20025;-63
2022/12/21 04:45:05;;;;;;;1.70;1.60;;;;;;;18.24;44.26;100941.66;5034412;28;20037;-63
2022/12/21 04:47:30;;;;;;;2.63;1.65;;;;;;;18.24;44.45;100947.03;5045263;28;20041;-63
2022/12/21 04:49:56;;;;;;;2.00;1.48;;;;;;;18.22;44.27;100935.59;5046347;28;20033;-63
2022/12/21 04:52:21;;;;;;;2.42;1.83;;;;;;;18.22;44.21;100943.66;5046264;28;20088;-64
2022/12/21 04:54:46;;;;;;;3.22;2.25;;;;;;;18.23;44.16;100948.91;5046140;28;20601;-63
2022/12/21 04:57:11;;;;;;;2.58;1.70;;;;;;;18.23;44.05;100945.38;5046179;28;20124;-64
2022/12/21 04:59:37;;;;;;;1.95;1.75;;;;;;;18.22;44.05;100955.28;5044407;28;20029;-63
2022/12/21 05:02:02;;;;;;;2.00;1.80;;;;;;;18.23;44.05;100945.38;5045812;28;20128;-64
2022/12/21 05:04:27;;;;;;;2.42;2.22;;;;;;;18.22;44.10;100951.72;5044161;28;20038;-64
2022/12/21 05:06:54;;;;;;;1.83;1.50;;;;;;;18.21;44.06;100948.19;5046149;28;20060;-63
2022/12/21 05:09:20;;;;;;;2.25;1.67;;;;;;;18.20;43.98;100951.91;5046142;28;20037;-63
2022/12/21 05:11:45;;;;;;;2.22;2.00;;;;;;;18.19;44.13;100952.91;5045745;28;20144;-64
2022/12/21 05:14:11;;;;;;;3.15;2.35;;;;;;;18.19;44.20;100949.38;5045759;28;20052;-63
2022/12/21 05:16:38;;;;;;;2.22;1.90;;;;;;;18.20;44.04;100938.44;5044101;28;20128;-64
2022/12/21 05:19:03;;;;;;;2.20;1.70;;;;;;;18.21;43.94;100926.66;5045498;28;20021;-63
2022/12/21 05:21:29;;;;;;;1.83;1.70;;;;;;;18.21;43.90;100923.97;5045523;28;20033;-63
2022/12/21 05:23:54;;;;;;;2.25;1.70;;;;;;;18.00;44.21;100893.97;5045943;28;20063;-63
2022/12/21 05:26:19;;;;;;;1.50;1.40;;;;;;;18.21;43.95;100934.75;5045634;28;20033;-62
2022/12/21 05:28:45;;;;;;;1.70;1.60;;;;;;;18.21;44.00;100950.91;5045327;28;20047;-64
2022/12/21 05:31:12;;;;;;;2.03;1.80;;;;;;;18.21;44.24;100950.91;5045738;28;20082;-62
2022/12/21 05:33:38;;;;;;;3.20;2.10;;;;;;;18.21;44.18;100953.59;5045183;28;20021;-63
2022/12/21 05:36:05;;;;;;;2.13;1.90;;;;;;;18.21;44.26;100952.75;5045387;28;20035;-63
2022/12/21 05:38:30;;;;;;;2.45;1.95;;;;;;;18.21;44.73;100947.38;5045481;28;20112;-62
2022/12/21 05:40:55;;;;;;;1.77;1.60;;;;;;;18.22;44.80;100954.41;5045319;28;20037;-62
2022/12/21 05:43:20;;;;;;;3.42;2.05;;;;;;;18.22;44.71;100951.72;5044063;28;20440;-63
2022/12/21 05:45:46;;;;;;;3.47;2.15;;;;;;;18.23;44.76;100948.91;5045045;28;20040;-63
2022/12/21 05:48:11;;;;;;;3.20;2.30;;;;;;;18.23;44.92;100935.44;5045093;28;20045;-63
2022/12/21 05:50:40;;;;;;;2.63;2.03;;;;;;;18.22;44.83;100927.50;5042756;28;20097;-63
2022/12/21 05:53:06;;;;;;;5.13;1.98;;;;;;;18.21;44.99;100918.59;5044630;28;20033;-63
2022/12/21 05:55:31;;;;;;;2.00;1.65;;;;;;;18.24;44.75;100926.34;5060766;28;20026;-63
2022/12/21 05:57:56;;;;;;;2.25;1.88;;;;;;;18.26;44.82;100928.03;5045265;28;20085;-63
2022/12/21 06:00:22;;;;;;;2.65;2.28;;;;;;;18.25;44.87;100924.50;5042926;28;20669;-63
2022/12/21 06:02:47;;;;;;;3.03;2.00;;;;;;;18.26;44.88;100928.03;5044855;28;20089;-63
2022/12/21 06:05:12;;;;;;;2.90;2.00;;;;;;;18.27;44.89;100932.44;5043965;28;20021;-63
2022/12/21 06:07:38;;;;;;;2.08;1.88;;;;;;;18.26;45.21;100928.03;5042868;28;20029;-63
2022/12/21 06:10:03;;;;;;;2.50;1.70;;;;;;;18.26;44.85;100923.50;5044370;28;20107;-63
2022/12/21 06:12:29;;;;;;;2.15;1.73;;;;;;;18.17;44.90;100906.47;5044791;28;20026;-64
2022/12/21 06:14:54;;;;;;;3.05;2.00;;;;;;;18.27;44.95;100919.81;5044160;28;20666;-63
2022/12/21 06:17:20;;;;;;;2.47;2.03;;;;;;;18.26;45.00;100926.19;5044197;28;20040;-64
2022/12/21 06:19:45;;;;;;;2.60;1.73;;;;;;;18.20;44.83;100908.84;5044126;28;20038;-63
2022/12/21 06:22:10;;;;;;;3.90;1.83;;;;;;;18.22;45.19;100919.44;5044267;28;20065;-63
2022/12/21 06:24:36;;;;;;;2.50;1.90;;;;;;;18.26;45.03;100926.19;5043208;28;20029;-63
2022/12/21 06:27:01;;;;;;;2.28;1.92;;;;;;;18.26;45.12;100928.88;5044250;28;20471;-64
2022/12/21 06:29:26;;;;;;;2.53;1.88;;;;;;;18.27;45.07;100925.19;5044689;28;20040;-64
2022/12/21 06:31:51;;;;;;;2.47;1.90;;;;;;;18.28;45.35;100923.34;5044208;28;20029;-64
2022/12/21 06:34:17;;;;;;;1.80;1.50;;;;;;;18.25;45.46;100919.13;5044295;28;20028;-64
2022/12/21 06:36:42;;;;;;;2.03;1.80;;;;;;;18.25;45.17;100927.19;5044543;28;20035;-63
2022/12/21 06:39:07;;;;;;;2.90;2.15;;;;;;;18.27;45.29;100914.44;5044348;28;20029;-63
2022/12/21 06:41:32;;;;;;;2.15;1.90;;;;;;;18.27;45.42;100910.91;5037863;28;20136;-63
2022/12/21 06:43:58;;;;;;;3.10;2.30;;;;;;;18.26;45.38;100909.19;5028941;28;20034;-64
2022/12/21 06:46:23;;;;;;;2.45;1.92;;;;;;;18.24;45.40;100904.81;5046564;28;20025;-64
2022/12/21 06:48:48;;;;;;;2.10;1.90;;;;;;;18.22;45.25;100911.38;5060648;28;20060;-63
2022/12/21 06:51:20;;;;;;;2.53;1.77;;;;;;;18.23;45.13;100919.28;5057512;28;20016;-64
2022/12/21 06:53:47;;;;;;;8.13;2.53;;;;;;;18.24;45.44;100914.75;5054498;28;20021;-64
2022/12/21 06:56:13;;;;;;;1.77;1.67;;;;;;;18.25;45.30;100919.13;5042131;28;20033;-64
2022/12/21 06:58:38;;;;;;;4.22;2.25;;;;;;;18.17;45.41;100916.41;5059690;28;20363;-64
2022/12/21 07:01:09;;;;;;;2.83;1.92;;;;;;;18.24;45.76;100920.13;5062332;28;20052;-64
2022/12/21 07:03:34;;;;;;;2.20;1.85;;;;;;;17.91;45.40;100882.34;5062739;28;20031;-64
2022/12/21 07:06:00;;;;;;;4.10;1.90;;;;;;;18.27;45.42;100943.19;5063267;28;20057;-63
2022/12/21 07:08:26;;;;;;;2.55;2.00;;;;;;;18.26;45.62;100955.78;5044623;28;20129;-62
2022/12/21 07:10:59;;;;;;;3.40;2.20;;;;;;;18.27;45.40;100954.81;5036520;28;20093;-64
2022/12/21 07:13:25;;;;;;;2.08;1.50;;;;;;;18.28;45.38;100939.50;5032960;28;20021;-63
2022/12/21 07:15:50;;;;;;;4.07;1.80;;;;;;;18.28;45.47;100952.94;5034252;28;20022;-63
2022/12/21 07:18:16;;;;;;;2.28;1.80;;;;;;;18.24;45.21;100953.28;5034152;28;20060;-64
2022/12/21 07:20:41;;;;;;;2.90;2.13;;;;;;;18.26;45.45;100963.84;5033263;28;20037;-64
2022/12/21 07:23:06;;;;;;;3.80;2.30;;;;;;;18.25;45.39;100962.19;5027346;28;20036;-64
2022/12/21 07:25:32;;;;;;;2.85;2.20;;;;;;;18.19;45.05;100952.91;5024201;28;20384;-63
2022/12/21 07:27:57;;;;;;;3.63;2.25;;;;;;;18.23;45.33;100950.75;5023937;28;20026;-64
2022/12/21 07:30:22;;;;;;;7.53;2.92;;;;;;;18.18;45.53;100951.25;5039407;28;20026;-63
2022/12/21 07:32:47;;;;;;;4.68;2.42;;;;;;;18.26;45.25;100965.72;5023843;28;20026;-63
2022/12/21 07:35:13;;;;;;;5.07;3.30;;;;;;;18.21;45.41;100955.44;5023781;28;20387;-64
2022/12/21 07:37:38;;;;;;;4.32;2.53;;;;;;;18.28;45.20;100967.25;5023919;28;20135;-63
2022/12/21 07:40:07;;;;;;;4.53;3.03;;;;;;;18.20;45.25;100949.22;5024060;28;20025;-63
2022/12/21 07:42:32;;;;;;;;;;;;;;;18.28;45.26;100959.16;5032940;28;20774;-64
2022/12/21 07:44:58;;;;;;;6.30;2.97;;;;;;;18.21;45.13;100955.44;5058566;28;19921;-64
2022/12/21 07:47:24;;;;;;;4.50;2.63;;;;;;;18.27;45.12;100965.56;5042701;28;20128;-63
2022/12/21 07:49:49;;;;;;;3.40;2.90;;;;;;;18.26;45.01;100945.03;5043397;28;20083;-63
2022/12/21 07:52:14;;;;;;;4.50;3.00;;;;;;;18.27;44.92;100951.28;5058971;28;20086;-63
2022/12/21 07:54:39;;;;;;;3.92;2.88;;;;;;;18.27;44.99;100960.19;5043402;28;20056;-63
2022/12/21 07:57:05;;;;;;;4.05;2.83;;;;;;;18.24;45.03;100949.75;5043528;28;20064;-63
2022/12/21 07:59:30;;;;;;;3.65;2.47;;;;;;;18.26;45.08;100963.84;5043641;28;20044;-63
2022/12/21 08:01:57;;;;;;;3.58;2.55;;;;;;;18.28;44.76;100958.34;5043516;28;20072;-63
2022/12/21 08:04:22;;;;;;;5.45;3.28;;;;;;;18.29;44.73;100958.16;5058263;28;20048;-63
2022/12/21 08:06:47;;;;;;;4.75;2.92;;;;;;;18.28;44.85;100956.47;5043448;28;20068;-63
2022/12/21 08:09:13;;;;;;;7.13;2.92;;;;;;;18.30;44.75;100962.53;5043761;28;20021;-63
2022/12/21 08:11:38;;;;;;;5.88;2.92;;;;;;;18.31;44.88;100974.13;5043373;28;20459;-63
2022/12/21 08:14:03;;;;;;;4.28;2.85;;;;;;;18.31;44.96;100985.78;5045528;28;20017;-62
2022/12/21 08:16:28;;;;;;;4.45;3.15;;;;;;;18.30;44.90;100991.28;5046468;28;20031;-63
2022/12/21 08:18:55;;;;;;;4.45;2.78;;;;;;;18.32;44.70;100997.38;5046789;28;20056;-63
2022/12/21 08:21:20;;;;;;;4.00;3.00;;;;;;;18.33;44.58;100993.66;5046966;28;20029;-63
2022/12/21 08:23:47;;;;;;;5.85;3.05;;;;;;;18.25;44.64;100983.72;5046761;28;20119;-63
2022/12/21 08:26:13;;;;;;;3.67;3.00;;;;;;;18.31;44.51;100988.47;5047005;28;20077;-63
2022/12/21 08:28:40;;;;;;;3.85;3.20;;;;;;;18.34;44.39;100992.66;5047273;28;20033;-64
2022/12/21 08:31:09;;;;;;;3.92;2.30;;;;;;;18.32;44.51;100989.31;5047047;28;20047;-63
2022/12/21 08:33:34;;;;;;;4.93;2.95;;;;;;;18.32;44.46;100986.59;5046558;28;20029;-64
2022/12/21 08:36:00;;;;;;;5.90;2.83;;;;;;;18.30;44.47;100981.38;5046319;28;20025;-63
2022/12/21 08:38:25;;;;;;;3.42;2.70;;;;;;;18.30;44.27;100980.53;5046737;28;20121;-63
2022/12/21 08:40:51;;;;;;;2.83;2.53;;;;;;;18.19;44.51;100963.69;5046560;28;20044;-64
2022/12/21 08:43:17;;;;;;;3.30;2.40;;;;;;;18.27;44.61;100979.03;5046363;28;20087;-63
2022/12/21 08:45:43;;;;;;;3.45;2.80;;;;;;;18.26;44.18;100974.63;5046284;28;20029;-63
2022/12/21 08:48:09;;;;;;;2.97;2.58;;;;;;;18.23;44.54;100965.03;5046125;28;20129;-63
2022/12/21 08:50:34;;;;;;;2.88;2.60;;;;;;;18.22;44.01;100973.25;5045595;28;20029;-63
2022/12/21 08:53:00;;;;;;;3.58;2.40;;;;;;;18.26;44.28;100971.94;5045329;28;20022;-63
2022/12/21 08:55:25;;;;;;;3.80;2.58;;;;;;;18.24;44.26;100969.41;5046430;28;20030;-63
2022/12/21 08:57:50;;;;;;;4.00;2.45;;;;;;;18.28;44.12;100969.94;5046336;28;20025;-63
2022/12/21 09:00:16;;;;;;;3.05;2.50;;;;;;;18.29;44.46;100965.41;5046543;28;20415;-63
2022/12/21 09:02:41;;;;;;;2.33;2.13;;;;;;;18.30;44.15;100962.53;5045642;28;20033;-63
2022/12/21 09:05:06;;;;;;;4.90;3.03;;;;;;;18.24;44.29;100952.44;5045371;28;20038;-63
2022/12/21 09:07:32;;;;;;;3.67;2.58;;;;;;;18.31;44.37;100969.63;5046163;28;20025;-63
2022/12/21 09:09:57;;;;;;;3.53;2.60;;;;;;;18.24;44.17;100964.03;5046213;28;20017;-63
2022/12/21 09:12:23;;;;;;;3.97;2.60;;;;;;;18.32;44.38;100974.00;5046004;28;20056;-63
2022/12/21 09:14:48;;;;;;;6.72;3.15;;;;;;;18.32;44.06;100974.00;5045715;28;20729;-63
2022/12/21 09:17:13;;;;;;;3.47;2.70;;;;;;;18.27;44.01;100960.19;5045487;28;20033;-63
2022/12/21 09:19:39;;;;;;;3.33;2.50;;;;;;;18.32;43.92;100965.91;5045206;28;20097;-63
2022/12/21 09:22:04;;;;;;;3.20;2.65;;;;;;;18.32;43.86;100979.38;5044441;28;20087;-63
2022/12/21 09:24:29;;;;;;;5.40;3.17;;;;;;;18.35;43.83;100973.66;5044904;28;20387;-63
2022/12/21 09:26:55;;;;;;;2.92;2.63;;;;;;;18.36;43.80;100966.44;5044042;28;20025;-63
2022/12/21 09:29:22;;;;;;;4.10;3.08;;;;;;;18.38;43.66;100970.63;5045764;28;20029;-63
2022/12/21 09:31:50;;;;;;;3.67;2.78;;;;;;;18.41;43.90;100961.41;5045819;28;20032;-63
2022/12/21 09:34:16;;;;;;;7.45;3.55;;;;;;;18.42;43.93;100963.06;5045213;28;20026;-64
2022/12/21 09:36:41;;;;;;;3.45;2.97;;;;;;;18.43;44.08;100962.91;5045559;28;20474;-63
2022/12/21 09:39:07;;;;;;;4.07;3.20;;;;;;;18.45;43.81;100960.06;5045750;28;20056;-64
2022/12/21 09:41:42;;;;;;;3.90;2.60;;;;;;;18.45;43.53;100968.97;5045687;28;20064;-63
2022/12/21 09:44:31;;;;;;;3.50;2.60;;;;;;;18.45;43.51;100968.97;5045563;28;20029;-63
2022/12/21 09:47:00;;;;;;;3.92;2.50;;;;;;;18.48;43.32;100974.03;5043767;28;20025;-63
2022/12/21 09:49:39;;;;;;;2.88;2.50;;;;;;;18.49;43.75;100974.88;5030805;28;20022;-63
2022/12/21 09:52:05;;;;;;;;;;;;;;;18.49;43.43;100964.94;5043204;28;20109;-63
2022/12/21 09:54:38;;;;;;;3.92;3.00;;;;;;;18.51;43.65;100969.31;5045031;28;19916;-63
2022/12/21 09:57:03;;;;;;;3.95;2.90;;;;;;;18.49;43.72;100961.41;5045235;28;20097;-63
2022/12/21 09:59:29;;;;;;;4.57;3.38;;;;;;;18.49;43.44;100962.25;5043435;28;20029;-63
2022/12/21 10:02:01;;;;;;;4.20;3.10;;;;;;;18.48;43.65;100959.75;5044776;28;20359;-63
2022/12/21 10:04:43;;;;;;;4.93;3.15;;;;;;;18.51;43.39;100964.78;5043333;28;20715;-64
2022/12/21 10:07:22;;;;;;;5.53;3.47;;;;;;;18.53;43.74;100967.31;5043432;28;20093;-64
2022/12/21 10:10:17;;;;;;;4.13;3.13;;;;;;;18.53;43.47;100960.09;5044823;28;20022;-64
2022/12/21 10:12:51;;;;;;;6.60;3.42;;;;;;;18.55;43.51;100962.59;5037889;28;20091;-64
2022/12/21 10:15:34;;;;;;;3.47;2.90;;;;;;;18.58;43.59;100959.59;5042705;28;20026;-64
2022/12/21 10:17:59;;;;;;;3.58;3.15;;;;;;;18.59;43.25;100959.41;5060028;28;20116;-64
2022/12/21 10:20:46;;;;;;;4.55;3.03;;;;;;;18.53;43.65;100948.47;5044494;28;20418;-63
2022/12/21 10:23:24;;;;;;;4.82;3.42;;;;;;;18.60;43.66;100965.63;5044363;28;20064;-64
2022/12/21 10:25:58;;;;;;;4.65;3.47;;;;;;;18.63;43.39;100965.31;5044848;28;20398;-64
2022/12/21 10:28:34;;;;;;;4.20;3.28;;;;;;;18.64;43.38;100964.31;5044267;28;20056;-63
2022/12/21 10:31:04;;;;;;;4.78;3.40;;;;;;;18.65;43.70;100963.31;5043510;28;20017;-64
2022/12/21 10:33:30;;;;;;;5.03;3.70;;;;;;;18.66;43.75;100963.13;5042477;28;20041;-64
2022/12/21 10:36:00;;;;;;;4.78;3.70;;;;;;;18.68;43.71;100963.81;5042564;28;20028;-64
2022/12/21 10:38:29;;;;;;;4.40;3.55;;;;;;;18.67;43.46;100945.13;5042865;28;20029;-63
2022/12/21 10:40:54;;;;;;;5.20;3.63;;;;;;;18.71;43.35;100952.75;5044408;28;20052;-64
2022/12/21 10:43:20;;;;;;;6.32;3.67;;;;;;;18.72;43.55;100945.50;5043986;28;20029;-64
2022/12/21 10:45:46;;;;;;;3.63;3.13;;;;;;;18.71;43.41;100944.66;5044004;28;20033;-63
2022/12/21 10:48:11;;;;;;;4.63;3.50;;;;;;;18.72;43.47;100937.41;5043623;28;20050;-64
2022/12/21 10:50:40;;;;;;;6.00;3.97;;;;;;;18.70;43.55;100934.91;5043840;28;20022;-64
2022/12/21 10:53:25;;;;;;;6.30;4.35;;;;;;;18.68;43.55;100934.19;5026835;28;20040;-64
2022/12/21 10:55:52;;;;;;;5.75;3.58;;;;;;;18.66;43.43;100933.50;5042863;28;20083;-65
2022/12/21 10:58:20;;;;;;;4.45;3.47;;;;;;;18.69;43.74;100938.59;5042152;28;20041;-65
2022/12/21 11:01:04;;;;;;;6.10;4.03;;;;;;;18.67;43.69;100929.81;5043918;28;20021;-64
2022/12/21 11:03:39;;;;;;;5.03;3.90;;;;;;;18.69;43.59;100927.84;5042897;28;20129;-64
2022/12/21 11:06:17;;;;;;;4.68;3.40;;;;;;;18.69;43.61;100927.84;5041854;28;20083;-63
2022/12/21 11:08:51;;;;;;;5.50;4.40;;;;;;;18.69;43.62;100932.31;5043987;28;20037;-64
2022/12/21 11:11:30;;;;;;;5.38;3.85;;;;;;;18.68;43.99;100931.47;5043801;28;20105;-63
2022/12/21 11:14:00;;;;;;;4.70;3.85;;;;;;;18.69;43.78;100919.75;5039781;28;20067;-64
2022/12/21 11:16:29;;;;;;;5.78;3.80;;;;;;;18.70;44.09;100924.13;5023782;28;20044;-63
2022/12/21 11:18:57;;;;;;;5.53;3.65;;;;;;;18.69;44.03;100921.53;5024170;28;20026;-63
2022/12/21 11:21:28;;;;;;;6.30;4.13;;;;;;;18.73;43.72;100920.25;5022772;28;20038;-64
2022/12/21 11:23:59;;;;;;;5.80;3.92;;;;;;;18.75;43.77;100920.94;5028891;28;20521;-64
2022/12/21 11:26:29;;;;;;;8.73;3.85;;;;;;;18.70;43.87;100912.53;5060368;28;20171;-64
2022/12/21 11:28:59;;;;;;;5.57;3.70;;;;;;;18.69;43.90;100905.38;5045033;28;20477;-64
2022/12/21 11:31:28;;;;;;;5.50;3.97;;;;;;;18.76;43.89;100916.38;5059016;28;20029;-64
2022/12/21 11:33:53;;;;;;;4.93;3.35;;;;;;;18.80;43.76;100923.13;5042555;28;20029;-64
2022/12/21 11:36:18;;;;;;;7.95;4.70;;;;;;;18.79;43.79;100919.59;5043559;28;20033;-64
2022/12/21 11:38:44;;;;;;;7.63;4.18;;;;;;;18.80;44.08;100936.59;5043909;28;20058;-64
2022/12/21 11:41:22;;;;;;;6.20;4.50;;;;;;;18.80;44.01;100931.19;5043931;28;20109;-64
2022/12/21 11:43:49;;;;;;;5.37;3.77;;;;;;;18.72;44.16;100922.09;5043594;28;20105;-64
2022/12/21 11:46:27;;;;;;;4.60;3.50;;;;;;;18.78;44.16;100930.53;5043219;28;20061;-64
2022/12/21 11:49:17;;;;;;;7.07;4.60;;;;;;;18.77;44.07;100934.22;5046034;28;20058;-64
2022/12/21 11:51:51;;;;;;;5.30;3.88;;;;;;;18.75;43.91;100944.34;5047344;28;20029;-64